sensor_id;sensor_type;location;lat;lon;timestamp;temperature;humidity
19090;DHT22;9677;50.656;13.064;2022-12-07T00:01:46;6.50;63.60
19090;DHT22;9677;50.656;13.064;2022-12-07T00:04:17;6.40;63.60
19090;DHT22;9677;50.656;13.064;2022-12-07T00:06:50;6.50;63.70
19090;DHT22;9677;50.656;13.064;2022-12-07T00:09:20;6.50;63.70
19090;DHT22;9677;50.656;13.064;2022-12-07T00:11:50;6.50;63.80
19090;DHT22;9677;50.656;13.064;2022-12-07T00:14:19;6.50;63.80
19090;DHT22;9677;50.656;13.064;2022-12-07T00:16:49;6.50;63.80
19090;DHT22;9677;50.656;13.064;2022-12-07T00:19:20;6.60;63.70
19090;DHT22;9677;50.656;13.064;2022-12-07T00:21:48;6.40;63.50
19090;DHT22;9677;50.656;13.064;2022-12-07T00:24:17;6.40;63.60
19090;DHT22;9677;50.656;13.064;2022-12-07T00:26:46;6.40;63.60
19090;DHT22;9677;50.656;13.064;2022-12-07T00:29:16;6.40;63.70
19090;DHT22;9677;50.656;13.064;2022-12-07T00:31:46;6.40;63.80
19090;DHT22;9677;50.656;13.064;2022-12-07T00:34:17;6.40;63.70
19090;DHT22;9677;50.656;13.064;2022-12-07T00:36:48;6.30;63.60
19090;DHT22;9677;50.656;13.064;2022-12-07T00:39:18;6.30;63.70
19090;DHT22;9677;50.656;13.064;2022-12-07T00:41:46;6.30;63.70
19090;DHT22;9677;50.656;13.064;2022-12-07T00:44:15;6.40;63.80
19090;DHT22;9677;50.656;13.064;2022-12-07T00:46:43;6.40;63.70
19090;DHT22;9677;50.656;13.064;2022-12-07T00:49:13;6.30;63.70
19090;DHT22;9677;50.656;13.064;2022-12-07T00:51:42;6.30;63.70
19090;DHT22;9677;50.656;13.064;2022-12-07T00:54:12;6.30;63.60
19090;DHT22;9677;50.656;13.064;2022-12-07T00:56:40;6.30;63.70
19090;DHT22;9677;50.656;13.064;2022-12-07T00:59:12;6.20;63.60
19090;DHT22;9677;50.656;13.064;2022-12-07T01:01:42;6.30;63.60
19090;DHT22;9677;50.656;13.064;2022-12-07T01:04:10;6.30;63.30
19090;DHT22;9677;50.656;13.064;2022-12-07T01:06:39;6.30;63.30
19090;DHT22;9677;50.656;13.064;2022-12-07T01:09:08;6.30;63.30
19090;DHT22;9677;50.656;13.064;2022-12-07T01:11:38;6.30;63.50
19090;DHT22;9677;50.656;13.064;2022-12-07T01:14:08;6.30;63.40
19090;DHT22;9677;50.656;13.064;2022-12-07T01:16:38;6.30;63.50
19090;DHT22;9677;50.656;13.064;2022-12-07T01:19:07;6.30;63.60
19090;DHT22;9677;50.656;13.064;2022-12-07T01:21:36;6.30;63.70
19090;DHT22;9677;50.656;13.064;2022-12-07T01:24:09;6.30;63.70
19090;DHT22;9677;50.656;13.064;2022-12-07T01:26:40;6.30;63.70
19090;DHT22;9677;50.656;13.064;2022-12-07T01:29:09;6.30;63.70
19090;DHT22;9677;50.656;13.064;2022-12-07T01:31:37;6.30;63.60
19090;DHT22;9677;50.656;13.064;2022-12-07T01:34:06;6.30;63.70
19090;DHT22;9677;50.656;13.064;2022-12-07T01:36:36;6.40;63.60
19090;DHT22;9677;50.656;13.064;2022-12-07T01:39:07;6.40;63.50
19090;DHT22;9677;50.656;13.064;2022-12-07T01:41:40;6.40;63.40
19090;DHT22;9677;50.656;13.064;2022-12-07T01:44:21;6.40;63.40
19090;DHT22;9677;50.656;13.064;2022-12-07T01:46:52;6.40;63.40
19090;DHT22;9677;50.656;13.064;2022-12-07T01:49:28;6.40;63.40
19090;DHT22;9677;50.656;13.064;2022-12-07T01:52:14;6.40;63.40
19090;DHT22;9677;50.656;13.064;2022-12-07T01:54:46;6.40;63.40
19090;DHT22;9677;50.656;13.064;2022-12-07T01:57:18;6.40;63.40
19090;DHT22;9677;50.656;13.064;2022-12-07T01:59:49;6.40;63.40
19090;DHT22;9677;50.656;13.064;2022-12-07T02:02:22;6.40;63.40
19090;DHT22;9677;50.656;13.064;2022-12-07T02:04:53;6.40;63.40
19090;DHT22;9677;50.656;13.064;2022-12-07T02:07:25;6.40;63.30
19090;DHT22;9677;50.656;13.064;2022-12-07T02:09:55;6.40;63.30
19090;DHT22;9677;50.656;13.064;2022-12-07T02:12:25;6.40;63.10
19090;DHT22;9677;50.656;13.064;2022-12-07T02:14:54;6.40;63.10
19090;DHT22;9677;50.656;13.064;2022-12-07T02:17:28;6.30;62.80
19090;DHT22;9677;50.656;13.064;2022-12-07T02:20:15;6.30;62.70
19090;DHT22;9677;50.656;13.064;2022-12-07T02:23:21;6.30;62.70
19090;DHT22;9677;50.656;13.064;2022-12-07T02:29:22;6.20;62.50
19090;DHT22;9677;50.656;13.064;2022-12-07T02:31:59;6.20;62.50
19090;DHT22;9677;50.656;13.064;2022-12-07T02:34:39;6.20;62.40
19090;DHT22;9677;50.656;13.064;2022-12-07T02:37:19;6.10;62.30
19090;DHT22;9677;50.656;13.064;2022-12-07T02:39:56;6.10;62.30
19090;DHT22;9677;50.656;13.064;2022-12-07T02:42:31;6.10;62.30
19090;DHT22;9677;50.656;13.064;2022-12-07T02:45:04;6.10;62.30
19090;DHT22;9677;50.656;13.064;2022-12-07T02:47:34;6.10;62.30
19090;DHT22;9677;50.656;13.064;2022-12-07T02:50:05;6.00;62.20
19090;DHT22;9677;50.656;13.064;2022-12-07T02:52:35;6.00;62.30
19090;DHT22;9677;50.656;13.064;2022-12-07T02:55:05;6.00;62.20
19090;DHT22;9677;50.656;13.064;2022-12-07T02:57:45;6.00;62.30
19090;DHT22;9677;50.656;13.064;2022-12-07T03:00:22;6.00;62.30
19090;DHT22;9677;50.656;13.064;2022-12-07T03:02:54;6.00;62.30
19090;DHT22;9677;50.656;13.064;2022-12-07T03:05:36;5.90;62.20
19090;DHT22;9677;50.656;13.064;2022-12-07T03:08:20;5.90;62.00
19090;DHT22;9677;50.656;13.064;2022-12-07T03:10:56;5.90;62.00
19090;DHT22;9677;50.656;13.064;2022-12-07T03:13:33;5.90;62.10
19090;DHT22;9677;50.656;13.064;2022-12-07T03:16:14;5.90;62.20
19090;DHT22;9677;50.656;13.064;2022-12-07T03:18:47;5.90;62.30
19090;DHT22;9677;50.656;13.064;2022-12-07T03:21:20;5.90;62.40
19090;DHT22;9677;50.656;13.064;2022-12-07T03:23:54;5.90;62.50
19090;DHT22;9677;50.656;13.064;2022-12-07T03:26:30;5.90;62.50
19090;DHT22;9677;50.656;13.064;2022-12-07T03:29:02;5.90;62.50
19090;DHT22;9677;50.656;13.064;2022-12-07T03:31:39;5.90;62.50
19090;DHT22;9677;50.656;13.064;2022-12-07T03:34:11;5.90;62.50
19090;DHT22;9677;50.656;13.064;2022-12-07T03:36:47;5.80;62.40
19090;DHT22;9677;50.656;13.064;2022-12-07T03:39:23;5.90;62.40
19090;DHT22;9677;50.656;13.064;2022-12-07T03:41:55;5.80;62.20
19090;DHT22;9677;50.656;13.064;2022-12-07T03:44:25;5.80;62.10
19090;DHT22;9677;50.656;13.064;2022-12-07T03:47:01;5.80;62.00
19090;DHT22;9677;50.656;13.064;2022-12-07T03:49:39;5.80;61.90
19090;DHT22;9677;50.656;13.064;2022-12-07T03:52:16;5.70;61.90
19090;DHT22;9677;50.656;13.064;2022-12-07T03:54:51;5.70;62.00
19090;DHT22;9677;50.656;13.064;2022-12-07T03:57:24;5.70;62.00
19090;DHT22;9677;50.656;13.064;2022-12-07T03:59:54;5.70;62.10
19090;DHT22;9677;50.656;13.064;2022-12-07T04:02:27;5.80;62.20
19090;DHT22;9677;50.656;13.064;2022-12-07T04:04:56;5.60;62.10
19090;DHT22;9677;50.656;13.064;2022-12-07T04:07:25;5.60;62.10
19090;DHT22;9677;50.656;13.064;2022-12-07T04:09:53;5.60;62.10
19090;DHT22;9677;50.656;13.064;2022-12-07T04:12:22;5.50;62.00
19090;DHT22;9677;50.656;13.064;2022-12-07T04:14:51;5.50;62.10
19090;DHT22;9677;50.656;13.064;2022-12-07T04:17:20;5.50;62.10
19090;DHT22;9677;50.656;13.064;2022-12-07T04:19:50;5.50;62.20
19090;DHT22;9677;50.656;13.064;2022-12-07T04:22:18;5.50;62.30
19090;DHT22;9677;50.656;13.064;2022-12-07T04:24:47;5.50;62.30
19090;DHT22;9677;50.656;13.064;2022-12-07T04:27:16;5.60;62.40
19090;DHT22;9677;50.656;13.064;2022-12-07T04:29:44;5.50;62.40
19090;DHT22;9677;50.656;13.064;2022-12-07T04:32:13;5.50;62.20
19090;DHT22;9677;50.656;13.064;2022-12-07T04:34:41;5.50;62.20
19090;DHT22;9677;50.656;13.064;2022-12-07T04:37:11;5.50;62.20
19090;DHT22;9677;50.656;13.064;2022-12-07T04:39:40;5.40;62.10
19090;DHT22;9677;50.656;13.064;2022-12-07T04:42:11;5.40;62.20
19090;DHT22;9677;50.656;13.064;2022-12-07T04:44:40;5.40;62.20
19090;DHT22;9677;50.656;13.064;2022-12-07T04:47:08;5.40;62.30
19090;DHT22;9677;50.656;13.064;2022-12-07T04:49:37;5.40;62.30
19090;DHT22;9677;50.656;13.064;2022-12-07T04:52:05;5.40;62.30
19090;DHT22;9677;50.656;13.064;2022-12-07T04:54:35;5.40;62.30
19090;DHT22;9677;50.656;13.064;2022-12-07T04:57:04;5.40;62.30
19090;DHT22;9677;50.656;13.064;2022-12-07T04:59:33;5.40;62.30
19090;DHT22;9677;50.656;13.064;2022-12-07T05:02:04;5.40;62.50
19090;DHT22;9677;50.656;13.064;2022-12-07T05:04:33;5.40;62.40
19090;DHT22;9677;50.656;13.064;2022-12-07T05:07:02;5.40;62.40
19090;DHT22;9677;50.656;13.064;2022-12-07T05:09:30;5.40;62.50
19090;DHT22;9677;50.656;13.064;2022-12-07T05:12:00;5.40;62.50
19090;DHT22;9677;50.656;13.064;2022-12-07T05:14:29;5.40;62.50
19090;DHT22;9677;50.656;13.064;2022-12-07T05:16:57;5.40;62.50
19090;DHT22;9677;50.656;13.064;2022-12-07T05:19:26;5.40;62.50
19090;DHT22;9677;50.656;13.064;2022-12-07T05:21:55;5.40;62.50
19090;DHT22;9677;50.656;13.064;2022-12-07T05:24:24;5.40;62.50
19090;DHT22;9677;50.656;13.064;2022-12-07T05:26:52;5.40;62.50
19090;DHT22;9677;50.656;13.064;2022-12-07T05:29:22;5.40;62.50
19090;DHT22;9677;50.656;13.064;2022-12-07T05:31:51;5.40;62.50
19090;DHT22;9677;50.656;13.064;2022-12-07T05:34:19;5.40;62.50
19090;DHT22;9677;50.656;13.064;2022-12-07T05:36:48;5.40;62.60
19090;DHT22;9677;50.656;13.064;2022-12-07T05:39:17;5.40;62.60
19090;DHT22;9677;50.656;13.064;2022-12-07T05:41:45;5.50;62.70
19090;DHT22;9677;50.656;13.064;2022-12-07T05:44:33;5.40;62.60
19090;DHT22;9677;50.656;13.064;2022-12-07T05:47:01;5.40;62.70
19090;DHT22;9677;50.656;13.064;2022-12-07T05:49:30;5.40;62.80
19090;DHT22;9677;50.656;13.064;2022-12-07T05:51:59;5.40;62.80
19090;DHT22;9677;50.656;13.064;2022-12-07T05:54:27;5.50;62.90
19090;DHT22;9677;50.656;13.064;2022-12-07T05:56:56;5.40;62.90
19090;DHT22;9677;50.656;13.064;2022-12-07T05:59:25;5.50;63.00
19090;DHT22;9677;50.656;13.064;2022-12-07T06:01:57;5.50;63.00
19090;DHT22;9677;50.656;13.064;2022-12-07T06:04:28;5.50;63.00
19090;DHT22;9677;50.656;13.064;2022-12-07T06:06:58;5.50;62.90
19090;DHT22;9677;50.656;13.064;2022-12-07T06:09:28;5.50;62.90
19090;DHT22;9677;50.656;13.064;2022-12-07T06:11:57;5.50;62.90
19090;DHT22;9677;50.656;13.064;2022-12-07T06:14:43;5.50;63.00
19090;DHT22;9677;50.656;13.064;2022-12-07T06:17:14;5.60;63.20
19090;DHT22;9677;50.656;13.064;2022-12-07T06:19:43;5.60;63.20
19090;DHT22;9677;50.656;13.064;2022-12-07T06:22:12;5.50;63.10
19090;DHT22;9677;50.656;13.064;2022-12-07T06:24:40;5.50;63.10
19090;DHT22;9677;50.656;13.064;2022-12-07T06:27:10;5.60;63.30
19090;DHT22;9677;50.656;13.064;2022-12-07T06:29:38;5.60;63.30
19090;DHT22;9677;50.656;13.064;2022-12-07T06:32:07;5.60;63.30
19090;DHT22;9677;50.656;13.064;2022-12-07T06:34:37;5.70;63.30
19090;DHT22;9677;50.656;13.064;2022-12-07T06:37:06;5.60;63.30
19090;DHT22;9677;50.656;13.064;2022-12-07T06:39:35;5.60;63.30
19090;DHT22;9677;50.656;13.064;2022-12-07T06:42:04;5.70;63.40
19090;DHT22;9677;50.656;13.064;2022-12-07T06:44:32;5.70;63.40
19090;DHT22;9677;50.656;13.064;2022-12-07T06:47:01;5.60;63.30
19090;DHT22;9677;50.656;13.064;2022-12-07T06:49:52;5.70;63.40
19090;DHT22;9677;50.656;13.064;2022-12-07T06:52:21;5.60;63.40
19090;DHT22;9677;50.656;13.064;2022-12-07T06:54:50;5.70;63.40
19090;DHT22;9677;50.656;13.064;2022-12-07T06:57:18;5.70;63.50
19090;DHT22;9677;50.656;13.064;2022-12-07T06:59:47;5.70;63.50
19090;DHT22;9677;50.656;13.064;2022-12-07T07:02:16;5.70;63.50
19090;DHT22;9677;50.656;13.064;2022-12-07T07:04:45;5.70;63.60
19090;DHT22;9677;50.656;13.064;2022-12-07T07:07:15;5.70;63.60
19090;DHT22;9677;50.656;13.064;2022-12-07T07:09:43;5.70;63.60
19090;DHT22;9677;50.656;13.064;2022-12-07T07:12:12;5.70;63.70
19090;DHT22;9677;50.656;13.064;2022-12-07T07:14:41;5.70;63.60
19090;DHT22;9677;50.656;13.064;2022-12-07T07:17:10;5.80;63.70
19090;DHT22;9677;50.656;13.064;2022-12-07T07:19:38;5.70;63.70
19090;DHT22;9677;50.656;13.064;2022-12-07T07:22:07;5.70;63.70
19090;DHT22;9677;50.656;13.064;2022-12-07T07:24:37;5.70;63.80
19090;DHT22;9677;50.656;13.064;2022-12-07T07:27:07;5.70;63.90
19090;DHT22;9677;50.656;13.064;2022-12-07T07:29:36;5.80;64.10
19090;DHT22;9677;50.656;13.064;2022-12-07T07:32:05;5.70;64.10
19090;DHT22;9677;50.656;13.064;2022-12-07T07:34:35;5.90;64.10
19090;DHT22;9677;50.656;13.064;2022-12-07T07:37:03;5.80;64.10
19090;DHT22;9677;50.656;13.064;2022-12-07T07:39:32;5.80;64.10
19090;DHT22;9677;50.656;13.064;2022-12-07T07:42:02;5.80;64.10
19090;DHT22;9677;50.656;13.064;2022-12-07T07:44:32;5.80;64.00
19090;DHT22;9677;50.656;13.064;2022-12-07T07:47:01;5.80;64.20
19090;DHT22;9677;50.656;13.064;2022-12-07T07:49:30;6.00;64.40
19090;DHT22;9677;50.656;13.064;2022-12-07T07:51:59;5.80;64.30
19090;DHT22;9677;50.656;13.064;2022-12-07T07:54:27;5.80;64.30
19090;DHT22;9677;50.656;13.064;2022-12-07T07:56:56;5.90;64.40
19090;DHT22;9677;50.656;13.064;2022-12-07T07:59:26;5.90;64.40
19090;DHT22;9677;50.656;13.064;2022-12-07T08:01:55;5.90;64.40
19090;DHT22;9677;50.656;13.064;2022-12-07T08:04:23;5.90;64.30
19090;DHT22;9677;50.656;13.064;2022-12-07T08:06:53;5.90;64.60
19090;DHT22;9677;50.656;13.064;2022-12-07T08:09:21;5.90;64.40
19090;DHT22;9677;50.656;13.064;2022-12-07T08:11:50;5.90;64.50
19090;DHT22;9677;50.656;13.064;2022-12-07T08:14:18;5.90;64.50
19090;DHT22;9677;50.656;13.064;2022-12-07T08:16:48;5.90;64.50
19090;DHT22;9677;50.656;13.064;2022-12-07T08:19:17;6.00;64.50
19090;DHT22;9677;50.656;13.064;2022-12-07T08:21:46;6.00;64.40
19090;DHT22;9677;50.656;13.064;2022-12-07T08:24:15;6.00;64.50
19090;DHT22;9677;50.656;13.064;2022-12-07T08:26:43;6.00;64.50
19090;DHT22;9677;50.656;13.064;2022-12-07T08:29:12;6.00;64.50
19090;DHT22;9677;50.656;13.064;2022-12-07T08:31:41;6.00;64.50
19090;DHT22;9677;50.656;13.064;2022-12-07T08:34:12;6.00;64.50
19090;DHT22;9677;50.656;13.064;2022-12-07T08:36:41;6.00;64.50
19090;DHT22;9677;50.656;13.064;2022-12-07T08:39:09;6.00;64.50
19090;DHT22;9677;50.656;13.064;2022-12-07T08:41:58;6.10;64.60
19090;DHT22;9677;50.656;13.064;2022-12-07T08:44:27;6.10;64.40
19090;DHT22;9677;50.656;13.064;2022-12-07T08:46:58;6.10;64.40
19090;DHT22;9677;50.656;13.064;2022-12-07T08:52:42;6.10;64.50
19090;DHT22;9677;50.656;13.064;2022-12-07T08:55:11;6.10;64.40
19090;DHT22;9677;50.656;13.064;2022-12-07T08:57:40;6.10;64.50
19090;DHT22;9677;50.656;13.064;2022-12-07T09:00:10;6.10;64.30
19090;DHT22;9677;50.656;13.064;2022-12-07T09:02:40;6.20;64.30
19090;DHT22;9677;50.656;13.064;2022-12-07T09:05:10;6.10;64.10
19090;DHT22;9677;50.656;13.064;2022-12-07T09:07:43;6.10;64.10
19090;DHT22;9677;50.656;13.064;2022-12-07T09:10:15;6.10;64.00
19090;DHT22;9677;50.656;13.064;2022-12-07T09:12:43;6.10;64.00
19090;DHT22;9677;50.656;13.064;2022-12-07T09:15:12;6.30;64.20
19090;DHT22;9677;50.656;13.064;2022-12-07T09:17:40;6.10;64.10
19090;DHT22;9677;50.656;13.064;2022-12-07T09:20:11;6.20;64.10
19090;DHT22;9677;50.656;13.064;2022-12-07T09:22:40;6.20;64.10
19090;DHT22;9677;50.656;13.064;2022-12-07T09:25:09;6.30;64.30
19090;DHT22;9677;50.656;13.064;2022-12-07T09:27:37;6.20;64.10
19090;DHT22;9677;50.656;13.064;2022-12-07T09:30:07;6.20;64.10
19090;DHT22;9677;50.656;13.064;2022-12-07T09:32:36;6.30;64.20
19090;DHT22;9677;50.656;13.064;2022-12-07T09:35:05;6.30;64.20
19090;DHT22;9677;50.656;13.064;2022-12-07T09:37:35;6.40;64.10
19090;DHT22;9677;50.656;13.064;2022-12-07T09:40:05;6.40;64.10
19090;DHT22;9677;50.656;13.064;2022-12-07T09:42:36;6.40;64.10
19090;DHT22;9677;50.656;13.064;2022-12-07T09:45:11;6.40;64.00
19090;DHT22;9677;50.656;13.064;2022-12-07T09:47:42;6.40;64.00
19090;DHT22;9677;50.656;13.064;2022-12-07T09:50:14;6.40;63.90
19090;DHT22;9677;50.656;13.064;2022-12-07T09:52:47;6.40;63.90
19090;DHT22;9677;50.656;13.064;2022-12-07T09:55:20;6.50;63.90
19090;DHT22;9677;50.656;13.064;2022-12-07T09:57:52;6.50;63.90
19090;DHT22;9677;50.656;13.064;2022-12-07T10:00:23;6.50;63.80
19090;DHT22;9677;50.656;13.064;2022-12-07T10:02:55;6.50;63.90
19090;DHT22;9677;50.656;13.064;2022-12-07T10:05:30;6.50;63.90
19090;DHT22;9677;50.656;13.064;2022-12-07T10:08:02;6.50;63.90
19090;DHT22;9677;50.656;13.064;2022-12-07T10:10:32;6.50;63.90
19090;DHT22;9677;50.656;13.064;2022-12-07T10:13:07;6.60;64.00
19090;DHT22;9677;50.656;13.064;2022-12-07T10:15:43;6.60;63.90
19090;DHT22;9677;50.656;13.064;2022-12-07T10:18:27;6.60;64.00
19090;DHT22;9677;50.656;13.064;2022-12-07T10:21:10;6.70;64.10
19090;DHT22;9677;50.656;13.064;2022-12-07T10:23:58;6.70;64.00
19090;DHT22;9677;50.656;13.064;2022-12-07T10:26:31;6.70;63.90
19090;DHT22;9677;50.656;13.064;2022-12-07T10:29:16;6.70;63.90
19090;DHT22;9677;50.656;13.064;2022-12-07T10:31:51;6.70;63.80
19090;DHT22;9677;50.656;13.064;2022-12-07T10:34:24;6.70;63.60
19090;DHT22;9677;50.656;13.064;2022-12-07T10:37:14;6.80;63.60
19090;DHT22;9677;50.656;13.064;2022-12-07T10:39:47;6.80;63.60
19090;DHT22;9677;50.656;13.064;2022-12-07T10:42:19;6.80;63.60
19090;DHT22;9677;50.656;13.064;2022-12-07T10:44:49;6.80;63.60
19090;DHT22;9677;50.656;13.064;2022-12-07T10:47:29;6.90;63.70
19090;DHT22;9677;50.656;13.064;2022-12-07T10:50:23;6.80;63.60
19090;DHT22;9677;50.656;13.064;2022-12-07T10:53:36;6.90;63.50
19090;DHT22;9677;50.656;13.064;2022-12-07T10:56:54;6.90;63.40
19090;DHT22;9677;50.656;13.064;2022-12-07T10:59:53;6.90;63.40
19090;DHT22;9677;50.656;13.064;2022-12-07T11:05:52;7.00;63.50
19090;DHT22;9677;50.656;13.064;2022-12-07T11:08:38;7.00;63.50
19090;DHT22;9677;50.656;13.064;2022-12-07T11:11:14;7.00;63.40
19090;DHT22;9677;50.656;13.064;2022-12-07T11:13:53;7.00;63.30
19090;DHT22;9677;50.656;13.064;2022-12-07T11:16:40;7.10;63.40
19090;DHT22;9677;50.656;13.064;2022-12-07T11:19:28;7.10;63.20
19090;DHT22;9677;50.656;13.064;2022-12-07T11:22:06;7.10;62.90
19090;DHT22;9677;50.656;13.064;2022-12-07T11:24:47;7.10;62.90
19090;DHT22;9677;50.656;13.064;2022-12-07T11:27:24;7.10;62.90
19090;DHT22;9677;50.656;13.064;2022-12-07T11:30:08;7.10;62.80
19090;DHT22;9677;50.656;13.064;2022-12-07T11:32:53;7.10;62.90
19090;DHT22;9677;50.656;13.064;2022-12-07T11:35:38;7.10;62.80
19090;DHT22;9677;50.656;13.064;2022-12-07T11:38:16;7.10;62.90
19090;DHT22;9677;50.656;13.064;2022-12-07T11:40:58;7.10;62.80
19090;DHT22;9677;50.656;13.064;2022-12-07T11:43:59;7.10;62.80
19090;DHT22;9677;50.656;13.064;2022-12-07T11:46:45;7.10;62.80
19090;DHT22;9677;50.656;13.064;2022-12-07T11:49:20;7.10;62.80
19090;DHT22;9677;50.656;13.064;2022-12-07T11:51:57;7.20;62.90
19090;DHT22;9677;50.656;13.064;2022-12-07T11:54:32;7.20;62.80
19090;DHT22;9677;50.656;13.064;2022-12-07T11:57:09;7.20;62.80
19090;DHT22;9677;50.656;13.064;2022-12-07T11:59:48;7.20;62.90
19090;DHT22;9677;50.656;13.064;2022-12-07T12:02:23;7.20;62.80
19090;DHT22;9677;50.656;13.064;2022-12-07T12:04:59;7.20;62.80
19090;DHT22;9677;50.656;13.064;2022-12-07T12:07:32;7.20;62.60
19090;DHT22;9677;50.656;13.064;2022-12-07T12:14:47;7.20;62.50
19090;DHT22;9677;50.656;13.064;2022-12-07T12:21:59;7.20;62.50
19090;DHT22;9677;50.656;13.064;2022-12-07T12:29:20;7.20;62.30
19090;DHT22;9677;50.656;13.064;2022-12-07T12:36:22;7.20;62.40
19090;DHT22;9677;50.656;13.064;2022-12-07T12:43:46;7.20;62.40
19090;DHT22;9677;50.656;13.064;2022-12-07T12:50:23;7.20;62.30
19090;DHT22;9677;50.656;13.064;2022-12-07T12:57:31;7.20;62.30
19090;DHT22;9677;50.656;13.064;2022-12-07T13:04:50;7.20;62.30
19090;DHT22;9677;50.656;13.064;2022-12-07T13:07:54;7.20;62.20
19090;DHT22;9677;50.656;13.064;2022-12-07T13:10:42;7.20;62.20
19090;DHT22;9677;50.656;13.064;2022-12-07T13:13:35;7.20;62.20
19090;DHT22;9677;50.656;13.064;2022-12-07T13:16:40;7.20;62.20
19090;DHT22;9677;50.656;13.064;2022-12-07T13:22:48;7.30;62.10
19090;DHT22;9677;50.656;13.064;2022-12-07T13:25:23;7.30;62.10
19090;DHT22;9677;50.656;13.064;2022-12-07T13:28:03;7.30;62.20
19090;DHT22;9677;50.656;13.064;2022-12-07T13:30:45;7.30;62.00
19090;DHT22;9677;50.656;13.064;2022-12-07T13:33:17;7.30;62.00
19090;DHT22;9677;50.656;13.064;2022-12-07T13:35:53;7.30;62.00
19090;DHT22;9677;50.656;13.064;2022-12-07T13:38:27;7.30;61.90
19090;DHT22;9677;50.656;13.064;2022-12-07T13:41:05;7.40;62.00
19090;DHT22;9677;50.656;13.064;2022-12-07T13:43:46;7.40;62.00
19090;DHT22;9677;50.656;13.064;2022-12-07T13:46:22;7.40;61.80
19090;DHT22;9677;50.656;13.064;2022-12-07T13:48:54;7.40;62.60
19090;DHT22;9677;50.656;13.064;2022-12-07T13:51:27;7.40;61.80
19090;DHT22;9677;50.656;13.064;2022-12-07T13:54:00;7.40;61.80
19090;DHT22;9677;50.656;13.064;2022-12-07T13:56:35;7.40;61.80
19090;DHT22;9677;50.656;13.064;2022-12-07T13:59:13;7.40;61.70
19090;DHT22;9677;50.656;13.064;2022-12-07T14:01:45;7.40;61.60
19090;DHT22;9677;50.656;13.064;2022-12-07T14:04:33;7.40;61.60
19090;DHT22;9677;50.656;13.064;2022-12-07T14:07:20;7.40;61.60
19090;DHT22;9677;50.656;13.064;2022-12-07T14:09:57;7.40;61.60
19090;DHT22;9677;50.656;13.064;2022-12-07T14:12:28;7.40;62.40
19090;DHT22;9677;50.656;13.064;2022-12-07T14:14:59;7.40;61.40
19090;DHT22;9677;50.656;13.064;2022-12-07T14:17:28;7.40;61.40
19090;DHT22;9677;50.656;13.064;2022-12-07T14:19:58;7.40;62.20
19090;DHT22;9677;50.656;13.064;2022-12-07T14:22:31;7.40;61.60
19090;DHT22;9677;50.656;13.064;2022-12-07T14:25:19;7.30;61.50
19090;DHT22;9677;50.656;13.064;2022-12-07T14:27:52;7.40;61.60
19090;DHT22;9677;50.656;13.064;2022-12-07T14:30:25;7.40;61.70
19090;DHT22;9677;50.656;13.064;2022-12-07T14:32:57;7.40;61.60
19090;DHT22;9677;50.656;13.064;2022-12-07T14:35:28;7.40;61.60
19090;DHT22;9677;50.656;13.064;2022-12-07T14:37:58;7.40;61.60
19090;DHT22;9677;50.656;13.064;2022-12-07T14:40:28;7.40;61.40
19090;DHT22;9677;50.656;13.064;2022-12-07T14:43:02;7.40;61.40
19090;DHT22;9677;50.656;13.064;2022-12-07T14:45:31;7.40;61.40
19090;DHT22;9677;50.656;13.064;2022-12-07T14:48:00;7.40;61.40
19090;DHT22;9677;50.656;13.064;2022-12-07T14:50:52;7.40;61.30
19090;DHT22;9677;50.656;13.064;2022-12-07T14:53:46;7.40;61.40
19090;DHT22;9677;50.656;13.064;2022-12-07T14:56:23;7.40;61.40
19090;DHT22;9677;50.656;13.064;2022-12-07T14:58:51;7.40;61.40
19090;DHT22;9677;50.656;13.064;2022-12-07T15:01:20;7.40;61.30
19090;DHT22;9677;50.656;13.064;2022-12-07T15:03:49;7.40;61.30
19090;DHT22;9677;50.656;13.064;2022-12-07T15:06:18;7.30;61.20
19090;DHT22;9677;50.656;13.064;2022-12-07T15:08:48;7.40;61.30
19090;DHT22;9677;50.656;13.064;2022-12-07T15:11:17;7.30;61.30
19090;DHT22;9677;50.656;13.064;2022-12-07T15:13:46;7.40;61.50
19090;DHT22;9677;50.656;13.064;2022-12-07T15:16:32;7.30;61.40
19090;DHT22;9677;50.656;13.064;2022-12-07T15:19:22;7.30;61.30
19090;DHT22;9677;50.656;13.064;2022-12-07T15:21:56;7.30;61.40
19090;DHT22;9677;50.656;13.064;2022-12-07T15:24:28;7.40;61.50
19090;DHT22;9677;50.656;13.064;2022-12-07T15:26:57;7.40;61.40
19090;DHT22;9677;50.656;13.064;2022-12-07T15:29:26;7.40;61.30
19090;DHT22;9677;50.656;13.064;2022-12-07T15:31:54;7.40;61.40
19090;DHT22;9677;50.656;13.064;2022-12-07T15:34:25;7.40;61.10
19090;DHT22;9677;50.656;13.064;2022-12-07T15:37:03;7.30;61.10
19090;DHT22;9677;50.656;13.064;2022-12-07T15:39:34;7.30;61.20
19090;DHT22;9677;50.656;13.064;2022-12-07T15:42:04;7.30;61.10
19090;DHT22;9677;50.656;13.064;2022-12-07T15:44:33;7.30;61.10
19090;DHT22;9677;50.656;13.064;2022-12-07T15:47:19;7.30;61.10
19090;DHT22;9677;50.656;13.064;2022-12-07T15:49:47;7.30;61.30
19090;DHT22;9677;50.656;13.064;2022-12-07T15:52:16;7.20;61.20
19090;DHT22;9677;50.656;13.064;2022-12-07T15:54:47;7.20;61.30
19090;DHT22;9677;50.656;13.064;2022-12-07T15:57:16;7.20;61.30
19090;DHT22;9677;50.656;13.064;2022-12-07T15:59:51;7.20;61.30
19090;DHT22;9677;50.656;13.064;2022-12-07T16:02:20;7.20;61.20
19090;DHT22;9677;50.656;13.064;2022-12-07T16:04:49;7.20;61.20
19090;DHT22;9677;50.656;13.064;2022-12-07T16:07:18;7.20;61.20
19090;DHT22;9677;50.656;13.064;2022-12-07T16:09:48;7.20;61.20
19090;DHT22;9677;50.656;13.064;2022-12-07T16:12:17;7.20;61.20
19090;DHT22;9677;50.656;13.064;2022-12-07T16:14:46;7.20;61.10
19090;DHT22;9677;50.656;13.064;2022-12-07T16:17:15;7.10;61.20
19090;DHT22;9677;50.656;13.064;2022-12-07T16:19:43;7.10;61.20
19090;DHT22;9677;50.656;13.064;2022-12-07T16:22:12;7.10;61.20
19090;DHT22;9677;50.656;13.064;2022-12-07T16:24:41;7.10;61.20
19090;DHT22;9677;50.656;13.064;2022-12-07T16:27:11;7.10;61.10
19090;DHT22;9677;50.656;13.064;2022-12-07T16:29:39;7.10;61.20
19090;DHT22;9677;50.656;13.064;2022-12-07T16:32:08;7.10;61.20
19090;DHT22;9677;50.656;13.064;2022-12-07T16:34:37;7.00;61.20
19090;DHT22;9677;50.656;13.064;2022-12-07T16:37:07;7.00;61.30
19090;DHT22;9677;50.656;13.064;2022-12-07T16:39:36;7.00;61.40
19090;DHT22;9677;50.656;13.064;2022-12-07T16:42:04;7.00;61.40
19090;DHT22;9677;50.656;13.064;2022-12-07T16:44:34;7.10;61.50
19090;DHT22;9677;50.656;13.064;2022-12-07T16:47:03;7.00;61.40
19090;DHT22;9677;50.656;13.064;2022-12-07T16:49:32;7.00;61.30
19090;DHT22;9677;50.656;13.064;2022-12-07T16:52:00;7.00;61.40
19090;DHT22;9677;50.656;13.064;2022-12-07T16:54:45;7.00;61.40
19090;DHT22;9677;50.656;13.064;2022-12-07T16:57:14;6.90;62.00
19090;DHT22;9677;50.656;13.064;2022-12-07T16:59:50;6.90;62.00
19090;DHT22;9677;50.656;13.064;2022-12-07T17:02:20;7.00;62.10
19090;DHT22;9677;50.656;13.064;2022-12-07T17:04:48;7.00;62.00
19090;DHT22;9677;50.656;13.064;2022-12-07T17:07:17;7.00;61.80
19090;DHT22;9677;50.656;13.064;2022-12-07T17:09:46;7.00;61.60
19090;DHT22;9677;50.656;13.064;2022-12-07T17:12:14;7.10;61.60